createdAt,value
2022-12-26T00:00:55.698Z,101007.13
2022-12-26T00:03:23.546Z,101007.06
2022-12-26T00:05:51.203Z,101005.28
2022-12-26T00:08:19.179Z,101014.00
2022-12-26T00:10:46.770Z,101014.00
2022-12-26T00:13:37.380Z,101019.13
2022-12-26T00:16:01.978Z,101012.25
2022-12-26T00:18:29.560Z,101014.03
2022-12-26T00:20:57.617Z,101015.75
2022-12-26T00:23:25.088Z,101015.72
2022-12-26T00:25:52.581Z,101026.13
2022-12-26T00:28:20.247Z,101041.66
2022-12-26T00:30:47.769Z,101036.50
2022-12-26T00:33:15.332Z,101048.59
2022-12-26T00:35:42.900Z,101046.88
2022-12-26T00:38:10.438Z,101028.63
2022-12-26T00:40:42.908Z,101032.97
2022-12-26T00:43:10.955Z,101043.41
2022-12-26T00:45:38.756Z,101039.94
2022-12-26T00:48:06.646Z,101044.19
2022-12-26T00:50:35.065Z,101054.69
2022-12-26T00:53:02.830Z,101052.06
2022-12-26T00:55:30.307Z,101050.34
2022-12-26T00:57:57.964Z,101032.97
2022-12-26T01:00:25.551Z,101058.09
2022-12-26T01:02:53.189Z,101046.84
2022-12-26T01:05:20.836Z,101058.09
2022-12-26T01:08:21.682Z,101052.09
2022-12-26T01:10:36.090Z,101040.81
2022-12-26T01:13:04.053Z,101036.41
2022-12-26T01:15:31.551Z,101051.13
2022-12-26T01:18:00.581Z,101045.94
2022-12-26T01:20:28.936Z,101045.91
2022-12-26T01:22:56.836Z,101039.88
2022-12-26T01:25:24.802Z,101038.09
2022-12-26T01:27:52.633Z,101047.66
2022-12-26T01:30:20.375Z,101050.31
2022-12-26T01:32:47.920Z,101032.09
2022-12-26T01:35:15.417Z,101033.00
2022-12-26T01:37:42.991Z,101032.16
2022-12-26T01:40:13.094Z,101047.72
2022-12-26T01:42:42.550Z,101041.69
2022-12-26T01:45:32.283Z,101038.22
2022-12-26T01:48:05.154Z,101048.63
2022-12-26T01:50:53.429Z,101048.59
2022-12-26T01:53:47.015Z,101052.03
2022-12-26T01:56:19.200Z,101055.50
2022-12-26T01:59:07.784Z,101050.31
2022-12-26T02:01:39.286Z,101045.13
2022-12-26T02:04:28.443Z,101048.53
2022-12-26T02:06:56.173Z,101039.94
2022-12-26T02:09:23.925Z,101046.78
2022-12-26T02:12:35.413Z,101039.88
2022-12-26T02:14:51.255Z,101051.94
2022-12-26T02:17:19.139Z,101031.16
2022-12-26T02:20:05.358Z,101033.78
2022-12-26T02:22:35.810Z,101034.66
2022-12-26T02:25:34.247Z,101034.63
2022-12-26T02:28:23.546Z,101045.03
2022-12-26T02:31:29.549Z,101032.91
2022-12-26T02:34:20.016Z,101034.63
2022-12-26T02:36:56.392Z,101032.91
2022-12-26T02:39:45.744Z,101034.59
2022-12-26T02:42:30.000Z,101033.72
2022-12-26T02:45:26.466Z,101034.50
2022-12-26T02:48:14.504Z,101034.59
2022-12-26T02:51:36.664Z,101050.16
2022-12-26T02:54:52.448Z,101038.06
2022-12-26T02:57:42.311Z,101035.44
2022-12-26T03:00:32.280Z,101044.16
2022-12-26T03:03:38.977Z,101031.19
2022-12-26T03:06:46.329Z,101020.78
2022-12-26T03:09:36.968Z,101026.91
2022-12-26T03:13:03.532Z,101031.19
2022-12-26T03:15:55.431Z,101034.69
2022-12-26T03:18:58.595Z,101026.00
2022-12-26T03:21:13.641Z,101036.41
2022-12-26T03:23:44.035Z,101043.31
2022-12-26T03:26:36.047Z,101039.88
2022-12-26T03:29:19.218Z,101048.53
2022-12-26T03:31:46.866Z,101042.47
2022-12-26T03:34:20.015Z,101045.88
2022-12-26T03:37:01.622Z,101048.47
2022-12-26T03:40:07.742Z,101044.13
2022-12-26T03:43:27.069Z,101051.03
2022-12-26T03:46:25.849Z,101039.78
2022-12-26T03:49:35.487Z,101034.56
2022-12-26T03:52:45.489Z,101050.16
2022-12-26T03:55:42.546Z,101040.66
2022-12-26T03:59:09.065Z,101043.22
2022-12-26T04:02:06.796Z,101019.00
2022-12-26T04:04:55.795Z,101038.88
2022-12-26T04:08:04.930Z,101036.31
2022-12-26T04:11:01.543Z,101038.91
2022-12-26T04:14:05.279Z,101026.78
2022-12-26T04:16:58.305Z,101032.81
2022-12-26T04:19:28.553Z,101039.69
2022-12-26T04:22:25.768Z,101032.75
2022-12-26T04:25:50.346Z,101043.13
2022-12-26T04:28:37.978Z,101039.66
2022-12-26T04:31:32.183Z,101043.09
2022-12-26T04:34:22.439Z,101050.78
2022-12-26T04:37:18.992Z,101057.69
2022-12-26T04:40:08.188Z,101061.19
2022-12-26T04:42:54.145Z,101059.44
2022-12-26T04:45:22.731Z,101044.75
2022-12-26T04:48:05.933Z,101043.06
2022-12-26T04:50:33.537Z,101043.06
2022-12-26T04:53:01.437Z,101032.63
2022-12-26T04:55:35.772Z,101037.78
2022-12-26T04:58:03.338Z,101025.66
2022-12-26T05:00:30.990Z,101029.06
2022-12-26T05:03:19.524Z,101016.97
2022-12-26T05:06:08.096Z,101031.63
2022-12-26T05:08:59.481Z,101023.03
2022-12-26T05:11:27.784Z,101005.72
2022-12-26T05:13:56.943Z,101002.22
2022-12-26T05:16:45.431Z,101000.53
2022-12-26T05:19:32.673Z,101014.34
2022-12-26T05:22:19.126Z,101025.56
2022-12-26T05:25:04.777Z,101037.63
2022-12-26T05:28:11.661Z,101039.38
2022-12-26T05:30:39.163Z,101044.59
2022-12-26T05:33:24.431Z,101043.72
2022-12-26T05:35:51.960Z,101027.31
2022-12-26T05:38:19.510Z,101031.59
2022-12-26T05:40:47.026Z,101030.69
2022-12-26T05:43:14.526Z,101032.38
2022-12-26T05:45:42.048Z,101028.94
2022-12-26T05:48:09.582Z,101031.53
2022-12-26T05:50:37.095Z,101041.06
2022-12-26T05:53:04.999Z,101044.53
2022-12-26T05:55:32.547Z,101025.56
2022-12-26T05:58:03.786Z,101018.63
2022-12-26T06:00:31.884Z,101025.59
2022-12-26T06:03:03.094Z,101016.94
2022-12-26T06:05:30.713Z,101018.75
2022-12-26T06:07:58.304Z,101013.56
2022-12-26T06:10:26.942Z,101034.34
2022-12-26T06:12:54.437Z,101020.47
2022-12-26T06:15:23.271Z,101017.81
2022-12-26T06:17:50.763Z,101029.94
2022-12-26T06:20:18.270Z,101017.81
2022-12-26T06:22:45.810Z,101031.63
2022-12-26T06:25:13.551Z,101031.63
2022-12-26T06:27:43.902Z,101022.97
2022-12-26T06:30:12.137Z,101021.25
2022-12-26T06:32:39.741Z,101033.34
2022-12-26T06:35:08.962Z,101022.06
2022-12-26T06:37:36.635Z,101029.03
2022-12-26T06:40:04.336Z,101035.97
2022-12-26T06:42:32.718Z,101037.69
2022-12-26T06:45:00.274Z,101003.97
2022-12-26T06:47:27.743Z,101042.09
2022-12-26T06:49:55.202Z,101039.53
2022-12-26T06:52:22.704Z,101038.69
2022-12-26T06:54:50.240Z,101034.38
2022-12-26T06:57:17.780Z,101027.50
2022-12-26T06:59:45.257Z,101031.00
2022-12-26T07:02:12.879Z,101026.69
2022-12-26T07:04:40.424Z,101025.88
2022-12-26T07:07:08.092Z,101019.81
2022-12-26T07:09:35.663Z,101006.81
2022-12-26T07:12:03.194Z,101025.81
2022-12-26T07:14:30.709Z,101024.09
2022-12-26T07:16:58.224Z,101033.63
2022-12-26T07:19:25.765Z,101029.31
2022-12-26T07:21:53.313Z,101018.88
2022-12-26T07:24:23.369Z,101023.22
2022-12-26T07:26:51.344Z,101025.84
2022-12-26T07:29:19.299Z,101012.00
2022-12-26T07:31:46.965Z,101018.88
2022-12-26T07:34:14.790Z,101010.25
2022-12-26T07:36:42.792Z,101010.25
2022-12-26T07:39:10.402Z,101024.13
2022-12-26T07:41:55.261Z,101024.16
2022-12-26T07:44:22.883Z,101025.00
2022-12-26T07:46:50.454Z,101022.44
2022-12-26T07:49:18.154Z,101029.34
2022-12-26T07:51:45.698Z,101034.56
2022-12-26T07:54:13.555Z,101029.41
2022-12-26T07:56:41.763Z,101036.34
2022-12-26T07:59:14.469Z,101032.91
2022-12-26T08:01:43.192Z,101024.31
2022-12-26T08:04:12.566Z,101032.03
2022-12-26T08:06:40.512Z,101029.47
2022-12-26T08:09:08.823Z,101035.50
2022-12-26T08:11:36.685Z,101035.50
2022-12-26T08:14:04.659Z,101045.06
2022-12-26T08:16:32.315Z,101042.44
2022-12-26T08:18:59.980Z,101057.16
2022-12-26T08:21:28.371Z,101055.50
2022-12-26T08:23:56.740Z,101060.69
2022-12-26T08:26:24.351Z,101044.25
2022-12-26T08:28:53.148Z,101050.25
2022-12-26T08:31:21.901Z,101056.41
2022-12-26T08:33:49.657Z,101066.75
2022-12-26T08:36:19.128Z,101060.72
2022-12-26T08:38:47.203Z,101062.47
2022-12-26T08:41:15.007Z,101064.22
2022-12-26T08:44:25.178Z,101075.47
2022-12-26T08:46:30.143Z,101078.94
2022-12-26T08:48:57.667Z,101082.41
2022-12-26T08:51:26.199Z,101107.47
2022-12-26T08:53:55.950Z,101116.16
2022-12-26T08:56:26.223Z,101126.53
2022-12-26T08:58:54.179Z,101124.78
2022-12-26T09:01:27.698Z,101130.00
2022-12-26T09:04:00.770Z,101131.69
2022-12-26T09:06:29.759Z,101143.75
2022-12-26T09:08:57.222Z,101143.72
2022-12-26T09:11:27.358Z,101152.34
2022-12-26T09:13:55.682Z,101155.78
2022-12-26T09:16:28.840Z,101167.88
2022-12-26T09:19:01.781Z,101161.84
2022-12-26T09:21:30.509Z,101175.63
2022-12-26T09:24:03.827Z,101194.63
2022-12-26T09:26:31.764Z,101204.09
2022-12-26T09:28:59.482Z,101204.09
2022-12-26T09:31:33.299Z,101207.53
2022-12-26T09:34:03.103Z,101212.69
2022-12-26T09:36:32.967Z,101226.47
2022-12-26T09:39:01.150Z,101248.09
2022-12-26T09:41:35.831Z,101255.81
2022-12-26T09:44:24.974Z,101268.22
2022-12-26T09:46:58.385Z,101272.25
2022-12-26T09:49:31.853Z,101284.19
2022-12-26T09:52:10.437Z,101277.88
2022-12-26T09:54:43.869Z,101291.75
2022-12-26T09:57:20.118Z,101286.41
2022-12-26T09:59:55.622Z,101290.66
2022-12-26T10:02:26.143Z,101295.84
2022-12-26T10:04:55.424Z,101301.03
2022-12-26T10:07:45.357Z,101306.25
2022-12-26T10:10:12.929Z,101310.59
2022-12-26T10:13:28.077Z,101326.91
2022-12-26T10:16:48.008Z,101335.63
2022-12-26T10:19:21.491Z,101333.06
2022-12-26T10:22:16.385Z,101338.91
2022-12-26T10:24:45.805Z,101344.84
2022-12-26T10:27:18.998Z,101347.59
2022-12-26T10:30:09.122Z,101350.06
2022-12-26T10:32:45.437Z,101349.31
2022-12-26T10:35:21.596Z,101362.28
2022-12-26T10:37:50.540Z,101361.34
2022-12-26T10:40:23.043Z,101354.31
2022-12-26T10:42:55.875Z,101361.19
2022-12-26T10:45:33.447Z,101372.44
2022-12-26T10:48:01.025Z,101375.06
2022-12-26T10:50:31.932Z,101358.50
2022-12-26T10:53:01.155Z,101348.78
2022-12-26T10:55:34.857Z,101368.69
2022-12-26T10:58:08.114Z,101369.63
2022-12-26T11:00:35.795Z,101376.59
2022-12-26T11:03:05.277Z,101375.03
2022-12-26T11:08:24.793Z,101368.09
2022-12-26T11:11:07.315Z,101373.19
2022-12-26T11:13:47.886Z,101386.06
2022-12-26T11:16:26.666Z,101405.09
2022-12-26T11:18:55.232Z,101386.06
2022-12-26T11:21:30.372Z,101402.69
2022-12-26T11:24:09.937Z,101404.19
2022-12-26T11:26:39.417Z,101409.28
2022-12-26T11:29:08.523Z,101412.81
2022-12-26T11:31:36.673Z,101418.75
2022-12-26T11:34:10.044Z,101397.00
2022-12-26T11:36:44.165Z,101428.53
2022-12-26T11:39:25.707Z,101426.06
2022-12-26T11:42:00.617Z,101428.00
2022-12-26T11:44:36.417Z,101435.78
2022-12-26T11:47:24.468Z,101432.03
2022-12-26T11:50:08.195Z,101435.59
2022-12-26T11:53:06.778Z,101442.63
2022-12-26T11:55:38.142Z,101444.22
2022-12-26T11:58:25.382Z,101448.53
2022-12-26T12:00:54.324Z,101445.19
2022-12-26T12:03:24.040Z,101451.13
2022-12-26T12:05:56.178Z,101449.72
2022-12-26T12:08:32.734Z,101444.56
2022-12-26T12:11:33.864Z,101437.81
2022-12-26T12:14:32.594Z,101405.38
2022-12-26T12:17:08.296Z,101439.28
2022-12-26T12:20:06.854Z,101447.91
2022-12-26T12:22:49.353Z,101446.91
2022-12-26T12:25:25.903Z,101449.59
2022-12-26T12:28:52.967Z,101445.88
2022-12-26T12:31:47.977Z,101458.84
2022-12-26T12:34:32.541Z,101448.25
2022-12-26T12:37:16.168Z,101459.53
2022-12-26T12:40:25.300Z,101462.69
2022-12-26T12:43:15.845Z,101466.91
2022-12-26T12:46:06.356Z,101469.19
2022-12-26T12:49:25.066Z,101469.13
2022-12-26T12:51:55.583Z,101481.03
2022-12-26T12:54:42.503Z,101473.19
2022-12-26T12:57:12.774Z,101477.47
2022-12-26T12:59:55.149Z,101486.06
2022-12-26T13:02:33.159Z,101497.09
2022-12-26T13:05:12.785Z,101498.09
2022-12-26T13:07:47.391Z,101497.94
2022-12-26T13:10:33.091Z,101502.19
2022-12-26T13:13:10.756Z,101503.13
2022-12-26T13:15:48.035Z,101508.28
2022-12-26T13:18:19.957Z,101504.94
2022-12-26T13:20:49.455Z,101506.66
2022-12-26T13:24:04.410Z,101510.09
2022-12-26T13:26:50.945Z,101505.00
2022-12-26T13:29:36.894Z,101506.47
2022-12-26T13:32:13.894Z,101503.69
2022-12-26T13:34:45.304Z,101507.91
2022-12-26T13:37:31.785Z,101520.78
2022-12-26T13:40:04.921Z,101523.25
2022-12-26T13:43:28.229Z,101537.69
2022-12-26T13:45:58.136Z,101524.84
2022-12-26T13:48:32.294Z,101525.06
2022-12-26T13:51:02.915Z,101534.53
2022-12-26T13:53:54.771Z,101533.47
2022-12-26T13:56:22.334Z,101542.88
2022-12-26T13:59:09.080Z,101544.50
2022-12-26T14:02:14.613Z,101540.91
2022-12-26T14:05:02.412Z,101546.03
2022-12-26T14:07:41.036Z,101549.34
2022-12-26T14:10:16.202Z,101559.50
2022-12-26T14:13:30.851Z,101554.94
2022-12-26T14:16:28.776Z,101558.28
2022-12-26T14:19:17.530Z,101556.75
2022-12-26T14:21:51.457Z,101568.91
2022-12-26T14:24:45.306Z,101570.59
2022-12-26T14:27:25.139Z,101581.72
2022-12-26T14:30:23.833Z,101589.34
2022-12-26T14:33:12.908Z,101593.44
2022-12-26T14:36:11.989Z,101595.88
2022-12-26T14:38:56.042Z,101618.19
2022-12-26T14:41:47.340Z,101618.41
2022-12-26T14:44:22.210Z,101619.13
2022-12-26T14:46:49.755Z,101611.38
2022-12-26T14:49:35.848Z,101616.53
2022-12-26T14:52:33.772Z,101618.19
2022-12-26T14:55:01.505Z,101623.25
2022-12-26T14:57:47.069Z,101625.03
2022-12-26T15:00:23.004Z,101625.94
2022-12-26T15:02:59.503Z,101635.59
2022-12-26T15:05:29.924Z,101645.81
2022-12-26T15:08:21.870Z,101646.38
2022-12-26T15:10:58.214Z,101647.00
2022-12-26T15:14:06.776Z,101644.97
2022-12-26T15:16:59.243Z,101649.97
2022-12-26T15:19:46.951Z,101623.47
2022-12-26T15:22:36.201Z,101654.88
2022-12-26T15:25:38.012Z,101621.34
2022-12-26T15:28:41.255Z,101664.91
2022-12-26T15:31:35.933Z,101661.22
2022-12-26T15:34:12.337Z,101660.22
2022-12-26T15:37:02.824Z,101666.06
2022-12-26T15:39:50.023Z,101666.06
2022-12-26T15:42:39.123Z,101675.84
2022-12-26T15:45:15.086Z,101674.22
2022-12-26T15:47:56.276Z,101682.75
2022-12-26T15:50:32.371Z,101688.47
2022-12-26T15:53:11.973Z,101696.31
2022-12-26T15:56:02.919Z,101696.19
2022-12-26T15:58:49.184Z,101693.50
2022-12-26T16:01:48.881Z,101692.38
2022-12-26T16:04:28.285Z,101703.53
2022-12-26T16:06:55.726Z,101718.06
2022-12-26T16:09:49.757Z,101707.63
2022-12-26T16:12:32.828Z,101704.03
2022-12-26T16:15:12.330Z,101712.78
2022-12-26T16:17:41.359Z,101716.09
2022-12-26T16:20:49.997Z,101712.78
2022-12-26T16:23:21.251Z,101707.75
2022-12-26T16:25:56.748Z,101714.47
2022-12-26T16:28:32.460Z,101715.38
2022-12-26T16:31:00.891Z,101722.13
2022-12-26T16:33:36.024Z,101724.94
2022-12-26T16:36:03.619Z,101723.09
2022-12-26T16:38:32.910Z,101733.31
2022-12-26T16:41:00.668Z,101721.06
2022-12-26T16:43:31.128Z,101724.34
2022-12-26T16:46:04.333Z,101724.06
2022-12-26T16:48:34.212Z,101734.44
2022-12-26T16:51:05.277Z,101736.94
2022-12-26T16:53:35.616Z,101745.38
2022-12-26T16:56:27.751Z,101746.41
2022-12-26T16:59:18.576Z,101752.28
2022-12-26T17:02:00.777Z,101743.66
2022-12-26T17:04:30.556Z,101754.03
2022-12-26T17:07:00.483Z,101755.56
2022-12-26T17:09:31.166Z,101759.66
2022-12-26T17:12:04.953Z,101726.38
2022-12-26T17:14:36.420Z,101765.59
2022-12-26T17:17:07.039Z,101753.53
2022-12-26T17:19:37.201Z,101757.81
2022-12-26T17:22:17.823Z,101762.16
2022-12-26T17:24:53.111Z,101760.44
2022-12-26T17:27:25.865Z,101757.81
2022-12-26T17:30:20.895Z,101771.81
2022-12-26T17:32:49.156Z,101764.81
2022-12-26T17:35:41.391Z,101770.97
2022-12-26T17:38:26.891Z,101772.59
2022-12-26T17:40:58.093Z,101777.19
2022-12-26T17:43:37.796Z,101776.59
2022-12-26T17:46:07.357Z,101775.00
2022-12-26T17:48:35.699Z,101787.38
2022-12-26T17:51:06.194Z,101782.53
2022-12-26T17:53:36.989Z,101783.44
2022-12-26T17:56:27.196Z,101781.97
2022-12-26T17:58:55.607Z,101786.97
2022-12-26T18:01:23.419Z,101787.03
2022-12-26T18:03:52.956Z,101793.94
2022-12-26T18:06:21.910Z,101789.00
2022-12-26T18:08:49.477Z,101799.31
2022-12-26T18:11:17.106Z,101799.19
2022-12-26T18:13:45.327Z,101802.59
2022-12-26T18:16:17.638Z,101801.28
2022-12-26T18:18:45.893Z,101807.22
2022-12-26T18:21:15.220Z,101809.56
2022-12-26T18:23:42.996Z,101806.03
2022-12-26T18:26:25.217Z,101801.66
2022-12-26T18:28:52.878Z,101815.25
2022-12-26T18:31:21.261Z,101820.28
2022-12-26T18:33:48.991Z,101817.66
2022-12-26T18:36:18.242Z,101828.25
2022-12-26T18:38:46.005Z,101836.06
2022-12-26T18:41:19.018Z,101838.31
2022-12-26T18:43:47.069Z,101846.81
2022-12-26T18:46:26.977Z,101842.31
2022-12-26T18:48:56.665Z,101841.38
2022-12-26T18:51:25.403Z,101848.44
2022-12-26T18:53:53.312Z,101850.31
2022-12-26T18:56:23.471Z,101848.03
2022-12-26T18:58:57.600Z,101864.47
2022-12-26T19:01:26.438Z,101851.50
2022-12-26T19:03:55.093Z,101863.69
2022-12-26T19:06:26.670Z,101862.00
2022-12-26T19:08:54.253Z,101880.94
2022-12-26T19:11:22.381Z,101874.88
2022-12-26T19:13:49.971Z,101879.84
2022-12-26T19:16:17.739Z,101877.28
2022-12-26T19:18:45.315Z,101869.28
2022-12-26T19:21:17.319Z,101874.50
2022-12-26T19:23:47.846Z,101891.00
2022-12-26T19:26:18.022Z,101883.22
2022-12-26T19:28:45.732Z,101893.56
2022-12-26T19:31:16.471Z,101891.88
2022-12-26T19:33:44.084Z,101889.44
2022-12-26T19:36:12.384Z,101887.00
2022-12-26T19:38:39.931Z,101895.72
2022-12-26T19:41:12.996Z,101896.47
2022-12-26T19:43:41.274Z,101894.00
2022-12-26T19:46:12.161Z,101892.25
2022-12-26T19:48:40.151Z,101891.44
2022-12-26T19:51:12.581Z,101901.88
2022-12-26T19:53:40.310Z,101893.19
2022-12-26T19:56:13.327Z,101895.72
2022-12-26T19:58:41.458Z,101895.81
2022-12-26T20:01:14.394Z,101896.44
2022-12-26T20:03:42.294Z,101904.00
2022-12-26T20:06:17.333Z,101902.34
2022-12-26T20:08:46.842Z,101908.31
2022-12-26T20:11:23.717Z,101901.19
2022-12-26T20:13:51.986Z,101896.38
2022-12-26T20:17:02.705Z,101894.41
2022-12-26T20:19:10.159Z,101908.19
2022-12-26T20:21:38.384Z,101915.13
2022-12-26T20:24:06.558Z,101919.47
2022-12-26T20:26:34.088Z,101896.78
2022-12-26T20:29:03.045Z,101909.41
2022-12-26T20:31:32.624Z,101915.16
2022-12-26T20:34:00.766Z,101918.31
2022-12-26T20:36:31.215Z,101917.13
2022-12-26T20:39:01.280Z,101918.81
2022-12-26T20:41:29.732Z,101895.94
2022-12-26T20:43:57.677Z,101912.63
2022-12-26T20:46:28.460Z,101915.25
2022-12-26T20:48:56.816Z,101928.84
2022-12-26T20:51:31.620Z,101939.13
2022-12-26T20:54:03.066Z,101942.66
2022-12-26T20:56:30.956Z,101935.84
2022-12-26T20:58:59.590Z,101923.13
2022-12-26T21:01:28.273Z,101931.13
2022-12-26T21:03:57.293Z,101950.03
2022-12-26T21:06:36.319Z,101957.44
2022-12-26T21:09:06.504Z,101944.63
2022-12-26T21:11:37.972Z,101944.75
2022-12-26T21:14:09.114Z,101953.31
2022-12-26T21:16:52.003Z,101957.56
2022-12-26T21:19:20.542Z,101967.03
2022-12-26T21:21:51.752Z,101967.03
2022-12-26T21:24:21.324Z,101970.50
2022-12-26T21:26:49.557Z,101980.59
2022-12-26T21:29:25.367Z,101977.81
2022-12-26T21:31:54.014Z,101973.59
2022-12-26T21:34:23.674Z,101986.72
2022-12-26T21:37:10.293Z,101984.22
2022-12-26T21:39:38.986Z,101983.44
2022-12-26T21:42:08.469Z,101981.38
2022-12-26T21:44:40.353Z,101973.44
2022-12-26T21:47:08.816Z,101990.88
2022-12-26T21:49:37.432Z,101989.25
2022-12-26T21:52:06.959Z,101978.59
2022-12-26T21:54:53.034Z,101985.75
2022-12-26T21:57:21.452Z,101992.44
2022-12-26T21:59:58.769Z,101995.03
2022-12-26T22:02:50.634Z,102000.03
2022-12-26T22:05:19.833Z,102017.28
2022-12-26T22:07:48.492Z,102012.75
2022-12-26T22:10:30.222Z,102012.63
2022-12-26T22:12:58.054Z,102005.72
2022-12-26T22:15:43.808Z,102022.78
2022-12-26T22:18:11.603Z,102020.69
2022-12-26T22:20:39.090Z,102022.41
2022-12-26T22:23:06.876Z,102026.59
2022-12-26T22:25:34.470Z,102029.78
2022-12-26T22:28:01.966Z,102033.25
2022-12-26T22:30:29.514Z,102031.16
2022-12-26T22:32:57.075Z,102040.06
2022-12-26T22:35:24.617Z,102045.25
2022-12-26T22:37:52.112Z,102039.22
2022-12-26T22:40:19.687Z,102046.97
2022-12-26T22:42:47.196Z,102043.50
2022-12-26T22:45:14.844Z,102034.78
2022-12-26T22:47:42.348Z,102045.75
2022-12-26T22:50:15.046Z,102045.88
2022-12-26T22:52:42.778Z,102052.94
2022-12-26T22:55:11.028Z,102042.88
2022-12-26T22:57:38.593Z,102057.41
2022-12-26T23:00:11.077Z,102048.47
2022-12-26T23:02:39.091Z,102048.03
2022-12-26T23:05:07.445Z,102047.88
2022-12-26T23:07:35.215Z,102059.97
2022-12-26T23:10:03.009Z,102056.94
2022-12-26T23:12:45.744Z,102050.03
2022-12-26T23:15:16.305Z,102055.56
2022-12-26T23:18:26.137Z,102056.31
2022-12-26T23:21:12.467Z,102074.47
2022-12-26T23:23:40.412Z,102070.75
2022-12-26T23:26:07.998Z,102056.06
2022-12-26T23:28:52.972Z,102072.75
2022-12-26T23:31:20.505Z,102078.16
2022-12-26T23:33:48.045Z,102087.09
2022-12-26T23:36:15.587Z,102088.09
2022-12-26T23:38:43.064Z,102090.84
2022-12-26T23:41:10.543Z,102087.34
2022-12-26T23:43:38.050Z,102083.97
2022-12-26T23:46:10.712Z,102087.34
2022-12-26T23:48:38.304Z,102091.81
2022-12-26T23:51:08.269Z,102087.41
2022-12-26T23:53:36.675Z,102087.91
2022-12-26T23:56:08.237Z,102088.75
2022-12-26T23:58:35.791Z,102092.38
